Time;durP1;ratioP1;P1;durP2;ratioP2;P2;SDS_P1;SDS_P2;PMS_P1;PMS_P2;Temp;Humidity;BMP_temperature;BMP_pressure;BME280_temperature;BME280_humidity;BME280_pressure;Samples;Min_cycle;Max_cycle;Signal;HPM_P1;HPM_P2
2022/06/29 00:04:18;;;;;;;4.20;3.80;;;17.70;53.30;;;;;;2615029;54;20476;-74
2022/06/29 00:10:08;;;;;;;4.30;4.00;;;17.50;59.80;;;;;;2615513;54;20518;-75
2022/06/29 00:16:13;;;;;;;3.97;3.53;;;17.30;71.20;;;;;;2613521;54;21069;-74
2022/06/29 00:22:00;;;;;;;4.47;4.07;;;17.10;78.30;;;;;;2613688;46;20299;-74
2022/06/29 00:27:47;;;;;;;4.67;4.20;;;17.00;87.10;;;;;;2613894;54;20132;-75
2022/06/29 00:33:34;;;;;;;5.37;4.03;;;17.00;90.80;;;;;;2613584;54;20128;-75
2022/06/29 00:39:21;;;;;;;6.43;3.63;;;16.70;97.60;;;;;;2613505;54;20145;-74
2022/06/29 00:45:09;;;;;;;5.33;4.43;;;16.60;99.90;;;;;;2613501;54;20266;-75
2022/06/29 00:51:00;;;;;;;7.53;4.97;;;16.50;99.90;;;;;;2614862;54;20668;-76
2022/06/29 00:56:48;;;;;;;4.67;4.20;;;16.40;99.90;;;;;;2615072;54;20433;-75
2022/06/29 01:02:35;;;;;;;6.70;5.20;;;16.50;99.90;;;;;;2615128;54;20163;-76
2022/06/29 01:08:24;;;;;;;4.60;4.20;;;16.50;99.90;;;;;;2614788;54;20129;-76
2022/06/29 01:24:22;;;;;;;4.73;4.33;;;16.50;99.90;;;;;;2613448;54;20416;-76
2022/06/29 01:30:10;;;;;;;7.83;5.63;;;16.50;99.90;;;;;;2613186;54;20397;-76
2022/06/29 01:35:57;;;;;;;4.87;4.37;;;16.80;99.90;;;;;;2613217;54;20380;-77
2022/06/29 01:41:44;;;;;;;6.17;4.87;;;16.80;99.90;;;;;;2613310;54;20154;-76
2022/06/29 01:47:31;;;;;;;5.30;4.80;;;16.90;99.90;;;;;;2613502;54;20389;-77
2022/06/29 01:53:19;;;;;;;9.43;4.53;;;16.80;99.90;;;;;;2613568;54;20658;-77
2022/06/29 01:59:06;;;;;;;6.80;4.50;;;16.70;99.90;;;;;;2614947;54;20375;-77
2022/06/29 02:04:54;;;;;;;5.80;3.87;;;16.60;99.90;;;;;;2614789;54;20183;-76
2022/06/29 02:10:41;;;;;;;7.00;4.20;;;16.80;99.90;;;;;;2615193;54;20188;-76
2022/06/29 02:26:39;;;;;;;7.17;4.83;;;16.60;99.90;;;;;;2614080;54;20425;-75
2022/06/29 02:38:32;;;;;;;5.27;4.77;;;16.80;99.90;;;;;;2614079;54;20422;-74
2022/06/29 02:44:19;;;;;;;5.30;4.80;;;16.90;99.90;;;;;;2614163;54;20133;-74
2022/06/29 02:50:07;;;;;;;5.70;4.50;;;17.00;99.90;;;;;;2614357;39;20637;-75
2022/06/29 02:55:54;;;;;;;5.13;4.50;;;17.10;99.90;;;;;;2613917;54;20549;-75
2022/06/29 03:01:42;;;;;;;6.90;4.93;;;17.00;99.90;;;;;;2614820;54;20250;-75
2022/06/29 03:07:30;;;;;;;5.83;3.90;;;17.00;99.90;;;;;;2615472;54;20128;-75
2022/06/29 03:13:18;;;;;;;4.90;4.50;;;17.00;99.90;;;;;;2615341;54;20144;-74
2022/06/29 03:19:06;;;;;;;4.80;4.30;;;17.00;99.90;;;;;;2615694;54;20137;-75
2022/06/29 03:24:54;;;;;;;4.80;3.97;;;17.00;99.90;;;;;;2616049;54;20149;-75
2022/06/29 03:27:57;;;;;;;6.53;5.17;;;17.00;99.90;;;;;;2615718;54;20418;-75
2022/06/29 03:30:22;;;;;;;5.90;4.40;;;17.00;99.90;;;;;;2615288;39;20616;-75
2022/06/29 03:36:10;;;;;;;7.10;4.30;;;17.00;99.90;;;;;;2615653;54;20248;-75
2022/06/29 03:41:58;;;;;;;5.37;4.87;;;17.00;99.90;;;;;;2615736;54;20139;-75
2022/06/29 03:47:47;;;;;;;6.23;4.60;;;16.70;99.90;;;;;;2615494;54;20671;-75
2022/06/29 03:53:35;;;;;;;6.30;5.70;;;16.70;99.90;;;;;;2615255;54;20445;-75
2022/06/29 03:59:23;;;;;;;7.20;5.23;;;16.60;99.90;;;;;;2615186;54;20153;-75
2022/06/29 04:05:11;;;;;;;5.73;5.20;;;16.50;99.90;;;;;;2615324;54;20125;-75
2022/06/29 04:11:01;;;;;;;6.80;5.10;;;16.60;99.90;;;;;;2615371;54;20140;-75
2022/06/29 04:21:05;;;;;;;6.13;5.57;;;16.90;99.90;;;;;;2615432;54;20393;-75
2022/06/29 04:26:22;;;;;;;7.77;4.60;;;17.10;99.90;;;;;;2613597;54;20397;-74
2022/06/29 04:32:10;;;;;;;5.37;4.83;;;17.40;99.90;;;;;;2614331;39;20755;-75
2022/06/29 04:41:19;;;;;;;5.50;5.00;;;18.10;99.90;;;;;;2614200;54;20402;-75
2022/06/29 04:47:07;;;;;;;6.00;5.13;;;18.20;98.40;;;;;;2613879;54;20394;-75
2022/06/29 04:52:54;;;;;;;5.27;4.87;;;18.60;91.30;;;;;;2614201;54;20166;-76
2022/06/29 04:58:42;;;;;;;5.37;4.87;;;19.00;84.80;;;;;;2615577;54;20129;-75
2022/06/29 05:04:30;;;;;;;6.10;5.53;;;19.90;57.00;;;;;;2615204;54;20398;-75
2022/06/29 05:10:18;;;;;;;8.23;5.27;;;19.60;58.90;;;;;;2616031;39;20556;-75
2022/06/29 05:26:18;;;;;;;8.43;4.93;;;19.70;57.30;;;;;;2613589;54;20518;-75
2022/06/29 05:32:06;;;;;;;11.10;5.10;;;20.20;46.80;;;;;;2612983;54;20267;-75
2022/06/29 05:37:54;;;;;;;5.33;4.83;;;20.40;43.60;;;;;;2613517;54;20588;-75
2022/06/29 05:43:43;;;;;;;5.93;5.00;;;20.90;40.80;;;;;;2613058;54;20977;-76
2022/06/29 05:49:31;;;;;;;7.60;5.03;;;21.30;34.70;;;;;;2612840;54;20395;-76
2022/06/29 05:55:18;;;;;;;7.47;5.00;;;22.10;23.20;;;;;;2613883;54;20182;-76
2022/06/29 06:01:09;;;;;;;7.33;5.20;;;23.50;11.20;;;;;;2615177;54;20186;-76
2022/06/29 06:06:56;;;;;;;14.30;6.30;;;23.80;9.10;;;;;;2613639;54;20448;-76
2022/06/29 06:12:44;;;;;;;6.07;5.47;;;24.50;1.00;;;;;;2615018;54;20150;-75
2022/06/29 06:18:43;;;;;;;8.80;5.87;;;23.70;1.90;;;;;;2613100;54;20174;-75
2022/06/29 06:24:31;;;;;;;9.07;4.60;;;22.80;6.40;;;;;;2613015;54;20122;-75
2022/06/29 06:30:18;;;;;;;4.80;4.37;;;22.70;6.00;;;;;;2613078;39;20647;-76
2022/06/29 06:36:05;;;;;;;5.77;5.27;;;23.70;2.90;;;;;;2612627;54;20166;-75
2022/06/29 06:41:52;;;;;;;6.70;5.30;;;25.50;1.00;;;;;;2611111;54;20152;-76
2022/06/29 06:47:40;;;;;;;6.13;5.60;;;27.00;1.00;;;;;;2612288;54;20131;-76
2022/06/29 06:53:27;;;;;;;6.50;5.90;;;27.00;1.00;;;;;;2613073;54;20718;-76
2022/06/29 06:59:15;;;;;;;10.73;6.33;;;26.90;1.00;;;;;;2615368;31;20645;-75
2022/06/29 07:05:03;;;;;;;8.10;6.10;;;26.80;1.00;;;;;;2614214;54;20126;-76
2022/06/29 07:10:51;;;;;;;6.23;5.63;;;26.10;1.00;;;;;;2613553;54;20358;-76
2022/06/29 07:26:56;;;;;;;6.90;5.90;;;24.80;1.00;;;;;;2612696;54;20417;-77
2022/06/29 07:32:43;;;;;;;6.50;5.13;;;24.20;1.00;;;;;;2612335;54;20421;-75
2022/06/29 07:38:30;;;;;;;7.80;5.87;;;24.00;1.00;;;;;;2613045;54;20182;-76
2022/06/29 07:44:20;;;;;;;6.53;5.77;;;23.80;1.00;;;;;;2612795;54;20140;-76
2022/06/29 07:50:12;;;;;;;9.33;6.13;;;23.80;1.00;;;;;;2613266;54;20996;-75
2022/06/29 07:55:59;;;;;;;6.20;5.60;;;24.00;1.00;;;;;;2612646;54;20395;-76
2022/06/29 08:01:47;;;;;;;6.23;5.63;;;23.90;1.00;;;;;;2614664;54;20207;-76
2022/06/29 08:07:38;;;;;;;6.60;5.03;;;23.80;1.00;;;;;;2614535;39;20556;-76
2022/06/29 08:13:25;;;;;;;6.43;5.60;;;24.30;1.00;;;;;;2614225;54;20387;-76
2022/06/29 08:22:35;;;;;;;6.63;5.63;;;23.90;1.00;;;;;;2614023;54;21010;-75
2022/06/29 08:28:26;;;;;;;7.10;5.30;;;24.10;1.00;;;;;;2614332;54;20134;-76
2022/06/29 08:34:16;;;;;;;8.93;6.97;;;24.40;1.00;;;;;;2614164;54;20388;-75
2022/06/29 08:40:08;;;;;;;6.03;5.47;;;24.60;1.00;;;;;;2614274;54;20446;-75
2022/06/29 08:45:56;;;;;;;10.03;6.50;;;24.80;1.00;;;;;;2614006;54;20391;-77
2022/06/29 08:51:44;;;;;;;7.80;6.57;;;24.90;1.00;;;;;;2614827;39;20932;-76
2022/06/29 08:57:40;;;;;;;13.33;5.70;;;24.90;1.00;;;;;;2614359;54;20390;-76
2022/06/29 09:03:28;;;;;;;7.47;6.17;;;24.90;1.00;;;;;;2614793;54;20420;-75
2022/06/29 09:09:15;;;;;;;11.90;5.57;;;24.40;1.00;;;;;;2613856;54;20156;-76
2022/06/29 09:15:06;;;;;;;6.23;5.63;;;24.40;1.00;;;;;;2614302;54;20601;-76
2022/06/29 09:27:46;;;;;;;9.07;6.00;;;24.90;1.00;;;;;;2613305;54;20491;-76
2022/06/29 09:33:34;;;;;;;7.80;6.63;;;24.60;1.40;;;;;;2613207;39;20567;-74
2022/06/29 09:39:35;;;;;;;12.83;5.67;;;24.70;1.00;;;;;;2613315;46;20415;-76
2022/06/29 09:45:22;;;;;;;7.90;6.50;;;24.40;1.00;;;;;;2612457;54;20388;-75
2022/06/29 10:10:33;;;;;;;5.97;5.50;;;25.00;1.00;;;;;;2613492;54;20392;-76
2022/06/29 10:26:32;;;;;;;7.97;5.40;;;25.80;1.00;;;;;;2613693;54;20428;-76
2022/06/29 10:32:19;;;;;;;6.90;6.20;;;25.60;1.00;;;;;;2613633;54;20962;-76
2022/06/29 10:38:07;;;;;;;5.70;5.20;;;25.30;1.00;;;;;;2613519;54;20129;-75
2022/06/29 10:43:54;;;;;;;9.60;5.93;;;25.80;1.00;;;;;;2614574;54;20959;-75
2022/06/29 10:49:42;;;;;;;6.47;5.97;;;25.60;1.00;;;;;;2613707;54;20229;-76
2022/06/29 10:55:33;;;;;;;8.23;5.63;;;26.10;1.00;;;;;;2615125;54;20403;-76
2022/06/29 11:01:21;;;;;;;7.17;6.53;;;26.70;1.00;;;;;;2614530;54;20442;-75
2022/06/29 11:13:26;;;;;;;6.20;5.60;;;26.70;1.00;;;;;;2615408;54;20402;-76
2022/06/29 11:29:22;;;;;;;5.53;5.07;;;26.50;1.00;;;;;;2614068;54;20535;-75
2022/06/29 11:38:32;;;;;;;6.77;6.20;;;27.10;1.00;;;;;;2614088;54;20385;-75
2022/06/29 11:44:27;;;;;;;6.13;5.53;;;27.40;1.00;;;;;;2613771;39;20781;-76
2022/06/29 11:50:17;;;;;;;7.13;5.83;;;27.70;1.00;;;;;;2613355;54;20420;-75
2022/06/29 11:56:17;;;;;;;6.70;6.10;;;27.20;1.00;;;;;;2614542;54;20465;-75
2022/06/29 12:02:06;;;;;;;9.73;7.10;;;26.50;1.00;;;;;;2614746;54;20942;-76
2022/06/29 12:07:54;;;;;;;8.50;7.77;;;26.80;1.00;;;;;;2613800;54;20436;-76
2022/06/29 12:13:42;;;;;;;6.43;5.90;;;27.30;1.00;;;;;;2614867;54;20158;-76
2022/06/29 12:22:52;;;;;;;6.17;5.67;;;27.30;1.00;;;;;;2614518;54;20524;-77
2022/06/29 12:28:39;;;;;;;6.40;5.90;;;26.90;1.00;;;;;;2615286;54;20132;-76
2022/06/29 12:34:27;;;;;;;13.03;6.40;;;27.30;1.00;;;;;;2613999;54;20127;-75
2022/06/29 12:40:15;;;;;;;6.53;6.00;;;28.00;1.00;;;;;;2615361;54;20132;-76
2022/06/29 12:46:03;;;;;;;7.30;6.80;;;28.60;1.00;;;;;;2613292;54;20647;-76
2022/06/29 12:51:51;;;;;;;9.13;6.47;;;28.70;1.00;;;;;;2614091;54;20415;-76
2022/06/29 12:57:38;;;;;;;7.00;6.40;;;29.30;1.00;;;;;;2613544;54;20260;-77
2022/06/29 13:03:26;;;;;;;6.47;5.97;;;30.30;1.00;;;;;;2614126;54;20396;-76
2022/06/29 13:09:14;;;;;;;7.13;6.10;;;30.40;1.00;;;;;;2614122;54;20704;-76
2022/06/29 13:15:02;;;;;;;7.37;5.67;;;30.80;1.00;;;;;;2614234;39;20216;-76
2022/06/29 13:21:02;;;;;;;9.50;7.10;;;30.30;1.00;;;;;;2612689;54;20400;-77
2022/06/29 13:29:25;;;;;;;6.50;6.00;;;30.40;1.00;;;;;;2616859;54;20437;-79
2022/06/29 13:31:52;;;;;;;6.90;6.40;;;30.30;1.00;;;;;;2679942;36;20472;-77
2022/06/29 13:37:39;;;;;;;7.13;6.43;;;30.60;1.00;;;;;;2617533;54;20440;-80
2022/06/29 13:43:35;;;;;;;7.50;6.90;;;30.40;1.00;;;;;;2632370;36;20207;-79
2022/06/29 13:49:23;;;;;;;6.70;6.30;;;30.70;1.00;;;;;;2616590;54;21050;-78
2022/06/29 13:55:10;;;;;;;12.07;7.80;;;31.20;1.00;;;;;;2616395;54;20439;-78
2022/06/29 14:00:59;;;;;;;7.83;6.90;;;31.50;1.00;;;;;;2616739;54;20139;-79
2022/06/29 14:06:47;;;;;;;5.93;5.63;;;32.20;1.00;;;;;;2617068;54;20968;-80
2022/06/29 14:12:34;;;;;;;6.80;6.30;;;32.20;1.00;;;;;;2617474;47;21834;-81
2022/06/29 14:18:23;;;;;;;6.57;6.07;;;31.80;1.00;;;;;;2618192;31;20604;-81
2022/06/29 14:24:10;;;;;;;7.73;7.13;;;31.50;1.00;;;;;;2619021;54;20414;-84
2022/06/29 14:29:58;;;;;;;8.83;6.70;;;32.80;1.00;;;;;;2617486;54;20189;-80
2022/06/29 14:35:46;;;;;;;7.13;6.70;;;31.80;1.00;;;;;;2619411;39;20537;-81
2022/06/29 14:41:35;;;;;;;7.27;6.60;;;31.40;1.00;;;;;;2618406;54;20133;-78
2022/06/29 14:47:24;;;;;;;8.03;7.40;;;31.10;1.00;;;;;;2618987;54;20504;-78
2022/06/29 14:53:12;;;;;;;11.23;7.30;;;30.40;1.00;;;;;;2619356;54;20416;-81
2022/06/29 14:58:59;;;;;;;8.33;7.20;;;30.10;1.00;;;;;;2620254;39;20453;-80
2022/06/29 15:04:47;;;;;;;7.00;6.30;;;30.70;1.00;;;;;;2620874;54;20628;-83
2022/06/29 15:10:36;;;;;;;7.53;6.90;;;30.80;1.00;;;;;;2621364;39;20550;-81
2022/06/29 15:16:23;;;;;;;7.73;6.97;;;30.70;1.00;;;;;;2618995;54;20481;-81
2022/06/29 15:22:11;;;;;;;10.33;6.87;;;30.50;1.00;;;;;;2617156;54;20131;-83
2022/06/29 15:27:58;;;;;;;7.43;6.87;;;29.80;1.00;;;;;;2617932;54;20698;-82
2022/06/29 15:42:36;;;;;;;8.07;7.33;;;29.80;1.00;;;;;;2617502;54;20506;-80
2022/06/29 15:48:23;;;;;;;7.73;7.07;;;28.90;1.00;;;;;;2614294;54;20252;-83
2022/06/29 16:00:19;;;;;;;9.37;7.23;;;30.40;1.00;;;;;;2614734;31;20866;-82
2022/06/29 16:06:07;;;;;;;7.87;6.80;;;30.80;1.00;;;;;;2615455;54;20444;-81
2022/06/29 16:18:02;;;;;;;8.80;8.07;;;30.80;1.00;;;;;;2615792;54;20422;-81
2022/06/29 16:23:49;;;;;;;10.47;7.70;;;30.60;1.00;;;;;;2615410;54;20160;-81
2022/06/29 16:33:16;;;;;;;9.50;8.90;;;29.80;1.00;;;;;;2615028;54;20417;-81
2022/06/29 16:42:25;;;;;;;8.70;7.80;;;28.10;1.00;;;;;;2613629;54;20398;-83
2022/06/29 16:48:12;;;;;;;9.60;7.50;;;27.90;1.00;;;;;;2624047;54;20151;-85
2022/06/29 16:54:00;;;;;;;9.40;8.40;;;27.80;1.00;;;;;;2622039;54;20134;-85
2022/06/29 16:59:47;;;;;;;8.27;7.73;;;27.50;1.00;;;;;;2624665;54;20395;-84
2022/06/29 17:05:34;;;;;;;8.37;7.67;;;27.40;1.00;;;;;;2623051;39;20500;-86
2022/06/29 17:11:22;;;;;;;8.43;7.83;;;27.40;1.00;;;;;;2623889;54;20140;-84
2022/06/29 17:17:10;;;;;;;7.90;7.30;;;28.80;1.00;;;;;;2620977;54;20149;-84
2022/06/29 17:22:58;;;;;;;9.13;8.40;;;29.40;1.00;;;;;;2623758;54;20198;-83
2022/06/29 17:28:46;;;;;;;9.03;8.13;;;28.70;1.00;;;;;;2625284;54;20133;-86
2022/06/29 17:34:34;;;;;;;8.63;7.93;;;29.00;1.00;;;;;;2623235;54;20221;-85
2022/06/29 17:40:31;;;;;;;9.33;8.53;;;29.00;1.00;;;;;;2615251;39;20595;-82
2022/06/29 17:46:19;;;;;;;8.93;8.13;;;29.00;1.00;;;;;;2614632;54;20239;-80
2022/06/29 17:52:06;;;;;;;8.60;7.63;;;28.30;1.00;;;;;;2615523;54;20133;-82
2022/06/29 17:57:53;;;;;;;12.10;8.97;;;27.70;1.00;;;;;;2615354;54;20494;-83
2022/06/29 18:03:41;;;;;;;8.97;8.17;;;26.90;1.00;;;;;;2618746;54;20196;-81
2022/06/29 18:09:28;;;;;;;9.20;8.40;;;26.60;1.00;;;;;;2621659;39;20339;-83
2022/06/29 18:15:17;;;;;;;9.43;8.63;;;26.40;1.00;;;;;;2619808;54;20252;-81
2022/06/29 18:21:05;;;;;;;8.83;8.23;;;26.10;1.00;;;;;;2623419;39;20446;-80
2022/06/29 18:26:53;;;;;;;8.90;8.10;;;26.10;1.00;;;;;;2622548;54;20147;-83
2022/06/29 18:32:41;;;;;;;7.97;7.37;;;26.00;1.00;;;;;;2625551;39;20522;-83
2022/06/29 18:48:45;;;;;;;10.47;8.23;;;25.80;1.30;;;;;;2623270;54;20437;-82
2022/06/29 18:54:32;;;;;;;9.43;8.53;;;25.70;2.60;;;;;;2621185;54;20156;-84
2022/06/29 19:00:20;;;;;;;8.47;7.80;;;25.50;3.20;;;;;;2620601;54;20133;-82
2022/06/29 19:06:07;;;;;;;9.80;8.90;;;25.50;3.30;;;;;;2621972;39;20918;-83
2022/06/29 19:11:55;;;;;;;9.30;8.50;;;25.30;4.50;;;;;;2622599;54;20121;-83
2022/06/29 19:17:42;;;;;;;12.97;8.50;;;25.30;5.20;;;;;;2623648;54;20125;-81
2022/06/29 19:23:29;;;;;;;8.37;7.73;;;25.00;7.00;;;;;;2622822;54;20134;-82
2022/06/29 19:29:17;;;;;;;9.33;8.57;;;24.80;9.10;;;;;;2622503;54;20140;-82
2022/06/29 19:35:05;;;;;;;9.40;8.70;;;24.80;9.50;;;;;;2623576;54;20403;-83
2022/06/29 19:41:12;;;;;;;9.53;8.53;;;24.80;10.20;;;;;;2622752;54;20414;-82
2022/06/29 19:47:00;;;;;;;11.17;10.17;;;24.60;11.20;;;;;;2624097;54;20710;-82
2022/06/29 19:52:47;;;;;;;9.60;8.70;;;24.30;14.70;;;;;;2624865;54;20119;-81
2022/06/29 19:58:35;;;;;;;10.73;9.60;;;24.20;15.20;;;;;;2624834;54;20133;-83
2022/06/29 20:04:22;;;;;;;11.97;9.90;;;24.10;17.20;;;;;;2622458;54;20978;-83
2022/06/29 20:10:11;;;;;;;10.87;9.57;;;23.90;18.60;;;;;;2623578;54;20134;-82
2022/06/29 20:15:59;;;;;;;9.30;8.60;;;23.60;22.90;;;;;;2625430;39;20916;-84
2022/06/29 20:21:46;;;;;;;11.83;10.60;;;23.40;27.50;;;;;;2624473;46;20190;-82
2022/06/29 20:27:35;;;;;;;14.00;10.90;;;23.40;29.80;;;;;;2620324;54;20156;-83
2022/06/29 20:33:24;;;;;;;10.80;9.90;;;23.60;27.90;;;;;;2620766;54;20395;-83
2022/06/29 20:49:21;;;;;;;11.27;10.27;;;23.50;30.00;;;;;;2622812;54;20520;-82
2022/06/29 20:55:10;;;;;;;23.97;12.70;;;23.40;33.50;;;;;;2623297;54;20654;-83
2022/06/29 21:00:58;;;;;;;20.13;16.40;;;23.10;40.00;;;;;;2623317;54;20396;-84
2022/06/29 21:06:52;;;;;;;19.60;14.87;;;22.90;51.60;;;;;;2622438;54;20421;-84
2022/06/29 21:12:39;;;;;;;15.77;14.03;;;22.90;53.90;;;;;;2623958;54;20482;-82
2022/06/29 21:18:27;;;;;;;16.07;14.57;;;22.70;59.30;;;;;;2623319;54;20415;-84
2022/06/29 21:24:15;;;;;;;13.50;12.40;;;22.60;65.40;;;;;;2624264;54;20395;-82
2022/06/29 21:30:03;;;;;;;16.40;12.20;;;22.30;79.80;;;;;;2623077;54;20125;-82
2022/06/29 21:35:51;;;;;;;12.07;11.07;;;22.20;81.30;;;;;;2623308;54;20399;-83
2022/06/29 21:45:01;;;;;;;12.63;11.50;;;21.80;93.90;;;;;;2623991;54;20435;-82
2022/06/29 21:56:56;;;;;;;17.33;12.70;;;21.70;96.60;;;;;;2625621;54;20475;-85
2022/06/29 22:02:44;;;;;;;12.53;11.53;;;21.70;97.30;;;;;;2624562;54;20138;-83
2022/06/29 22:08:34;;;;;;;15.90;11.90;;;21.70;99.40;;;;;;2624518;54;20243;-82
2022/06/29 22:14:21;;;;;;;16.10;12.20;;;21.60;99.90;;;;;;2625361;39;20779;-81
2022/06/29 22:20:10;;;;;;;13.60;12.30;;;21.20;99.90;;;;;;2622755;54;20152;-82
2022/06/29 22:25:57;;;;;;;13.13;11.93;;;21.10;99.90;;;;;;2621783;54;20410;-83
2022/06/29 22:31:46;;;;;;;15.63;13.73;;;21.00;99.90;;;;;;2621741;54;20420;-83
2022/06/29 22:37:33;;;;;;;14.27;12.10;;;20.90;99.90;;;;;;2622972;54;20453;-81
2022/06/29 22:50:11;;;;;;;13.97;12.73;;;20.70;99.90;;;;;;2620758;54;20951;-83
2022/06/29 22:55:58;;;;;;;14.40;13.17;;;20.70;99.90;;;;;;2620267;54;20236;-82
2022/06/29 23:01:45;;;;;;;17.13;13.37;;;20.60;99.90;;;;;;2621193;54;20158;-82
2022/06/29 23:07:33;;;;;;;15.07;13.53;;;20.30;99.90;;;;;;2620279;54;20127;-83
2022/06/29 23:13:20;;;;;;;14.63;13.10;;;20.20;99.90;;;;;;2618910;54;20153;-82
2022/06/29 23:19:08;;;;;;;15.03;13.63;;;20.00;99.90;;;;;;2621827;54;20152;-84
2022/06/29 23:24:56;;;;;;;14.73;12.70;;;19.90;99.90;;;;;;2620260;54;20170;-84
2022/06/29 23:30:44;;;;;;;14.97;13.67;;;19.60;99.90;;;;;;2620678;54;20372;-82
2022/06/29 23:36:31;;;;;;;15.10;13.60;;;19.60;99.90;;;;;;2620180;54;20222;-82
2022/06/29 23:45:39;;;;;;;15.93;14.53;;;19.70;99.90;;;;;;2619637;47;20402;-82
2022/06/29 23:51:26;;;;;;;15.87;14.40;;;19.50;99.90;;;;;;2620257;54;20250;-82
2022/06/29 23:57:14;;;;;;;15.13;13.83;;;19.50;99.90;;;;;;2620872;54;20125;-83
